createdAt,value
2019-02-04T00:00:40.957Z,87.74
2019-02-04T00:03:12.968Z,87.85
2019-02-04T00:05:41.414Z,87.97
2019-02-04T00:08:09.959Z,88.11
2019-02-04T00:10:38.608Z,88.42
2019-02-04T00:13:07.375Z,88.80
2019-02-04T00:15:36.578Z,89.17
2019-02-04T00:18:06.822Z,89.34
2019-02-04T00:20:35.276Z,89.42
2019-02-04T00:23:03.723Z,89.54
2019-02-04T00:25:32.274Z,89.56
2019-02-04T00:28:00.747Z,89.51
2019-02-04T00:30:29.345Z,89.60
2019-02-04T00:32:57.853Z,89.72
2019-02-04T00:35:26.321Z,89.67
2019-02-04T00:37:54.767Z,89.68
2019-02-04T00:40:26.453Z,89.72
2019-02-04T00:42:54.902Z,89.80
2019-02-04T00:45:23.369Z,89.85
2019-02-04T00:47:51.864Z,89.88
2019-02-04T00:50:21.559Z,89.82
2019-02-04T00:52:50.111Z,89.81
2019-02-04T00:55:18.853Z,89.74
2019-02-04T00:57:47.309Z,89.63
2019-02-04T01:00:21.589Z,89.55
2019-02-04T01:02:50.163Z,89.56
2019-02-04T01:05:21.794Z,89.38
2019-02-04T01:07:50.414Z,89.31
2019-02-04T01:10:27.438Z,89.26
2019-02-04T01:12:56.360Z,89.18
2019-02-04T01:15:24.879Z,89.03
2019-02-04T01:17:53.560Z,88.90
2019-02-04T01:20:24.902Z,88.78
2019-02-04T01:22:54.247Z,88.73
2019-02-04T01:25:23.110Z,88.59
2019-02-04T01:27:51.657Z,88.28
2019-02-04T01:30:22.828Z,88.03
2019-02-04T01:32:53.150Z,87.81
2019-02-04T01:35:21.660Z,87.76
2019-02-04T01:37:50.483Z,87.72
2019-02-04T01:40:26.296Z,87.64
2019-02-04T01:42:55.588Z,87.59
2019-02-04T01:45:24.877Z,87.64
2019-02-04T01:47:53.441Z,87.75
2019-02-04T01:50:23.215Z,87.82
2019-02-04T01:52:51.742Z,87.95
2019-02-04T01:55:20.247Z,88.24
2019-02-04T01:57:51.252Z,88.40
2019-02-04T02:00:44.987Z,88.39
2019-02-04T02:03:13.454Z,88.21
2019-02-04T02:05:41.900Z,88.35
2019-02-04T02:08:10.381Z,88.13
2019-02-04T02:10:38.859Z,88.01
2019-02-04T02:13:07.329Z,87.93
2019-02-04T02:15:35.823Z,87.82
2019-02-04T02:18:05.073Z,87.74
2019-02-04T02:20:33.530Z,87.76
2019-02-04T02:23:02.474Z,87.66
2019-02-04T02:25:31.043Z,87.67
2019-02-04T02:27:59.496Z,87.79
2019-02-04T02:30:30.157Z,87.96
2019-02-04T02:32:58.629Z,88.15
2019-02-04T02:35:27.209Z,88.58
2019-02-04T02:37:55.699Z,88.78
2019-02-04T02:40:29.942Z,88.96
2019-02-04T02:42:58.844Z,89.02
2019-02-04T02:45:27.420Z,89.09
2019-02-04T02:47:55.959Z,89.23
2019-02-04T02:50:24.424Z,89.28
2019-02-04T02:52:52.993Z,89.22
2019-02-04T02:55:21.557Z,89.12
2019-02-04T02:57:50.053Z,89.11
2019-02-04T03:00:21.275Z,89.19
2019-02-04T03:02:49.803Z,89.26
2019-02-04T03:05:18.630Z,89.29
2019-02-04T03:07:47.130Z,89.22
2019-02-04T03:10:24.341Z,89.23
2019-02-04T03:12:52.915Z,89.22
2019-02-04T03:15:21.471Z,89.30
2019-02-04T03:17:52.387Z,89.31
2019-02-04T03:20:20.399Z,89.27
2019-02-04T03:22:48.998Z,89.37
2019-02-04T03:25:17.603Z,89.41
2019-02-04T03:27:46.237Z,89.55
2019-02-04T03:30:20.544Z,89.58
2019-02-04T03:32:49.070Z,89.56
2019-02-04T03:35:17.706Z,89.46
2019-02-04T03:37:46.269Z,89.43
2019-02-04T03:40:18.205Z,89.37
2019-02-04T03:42:46.854Z,89.35
2019-02-04T03:45:15.735Z,89.51
2019-02-04T03:47:44.362Z,89.58
2019-02-04T03:50:14.080Z,89.68
2019-02-04T03:52:42.622Z,89.86
2019-02-04T03:55:13.076Z,89.88
2019-02-04T03:57:41.684Z,90.00
2019-02-04T04:00:36.803Z,90.08
2019-02-04T04:03:05.859Z,90.20
2019-02-04T04:05:34.395Z,90.20
2019-02-04T04:08:03.016Z,90.52
2019-02-04T04:10:31.666Z,90.81
2019-02-04T04:13:00.225Z,90.91
2019-02-04T04:15:28.839Z,91.03
2019-02-04T04:17:57.377Z,91.04
2019-02-04T04:20:25.951Z,91.24
2019-02-04T04:22:54.487Z,91.33
2019-02-04T04:25:23.096Z,91.41
2019-02-04T04:27:52.554Z,91.40
2019-02-04T04:30:23.340Z,91.60
2019-02-04T04:32:51.980Z,91.74
2019-02-04T04:35:20.580Z,91.88
2019-02-04T04:37:49.195Z,91.91
2019-02-04T04:40:18.585Z,91.93
2019-02-04T04:42:47.208Z,91.90
2019-02-04T04:45:20.697Z,91.97
2019-02-04T04:47:49.543Z,91.97
2019-02-04T04:50:18.249Z,91.88
2019-02-04T04:52:46.861Z,91.91
2019-02-04T04:55:23.546Z,91.90
2019-02-04T04:57:52.111Z,91.75
2019-02-04T05:00:26.177Z,91.62
2019-02-04T05:02:54.766Z,91.47
2019-02-04T05:05:23.297Z,91.43
2019-02-04T05:07:51.995Z,91.38
2019-02-04T05:10:21.619Z,91.53
2019-02-04T05:12:50.170Z,91.57
2019-02-04T05:15:24.340Z,91.63
2019-02-04T05:17:53.195Z,91.81
2019-02-04T05:20:22.491Z,91.80
2019-02-04T05:22:51.199Z,91.86
2019-02-04T05:25:19.757Z,92.27
2019-02-04T05:27:48.304Z,92.55
2019-02-04T05:30:21.938Z,92.73
2019-02-04T05:32:50.703Z,92.78
2019-02-04T05:35:19.814Z,92.82
2019-02-04T05:37:48.428Z,92.82
2019-02-04T05:40:17.758Z,92.95
2019-02-04T05:42:46.679Z,93.04
2019-02-04T05:45:20.197Z,93.04
2019-02-04T05:47:48.786Z,93.07
2019-02-04T05:50:18.976Z,93.09
2019-02-04T05:52:48.763Z,93.07
2019-02-04T05:55:18.798Z,92.98
2019-02-04T05:57:47.348Z,92.85
2019-02-04T06:00:23.707Z,92.76
2019-02-04T06:02:52.286Z,92.74
2019-02-04T06:05:20.961Z,92.74
2019-02-04T06:07:49.505Z,92.67
2019-02-04T06:10:18.536Z,92.67
2019-02-04T06:12:47.089Z,92.59
2019-02-04T06:15:16.878Z,92.60
2019-02-04T06:17:45.461Z,92.64
2019-02-04T06:20:17.431Z,92.59
2019-02-04T06:22:45.973Z,92.65
2019-02-04T06:25:14.617Z,92.67
2019-02-04T06:27:43.174Z,92.68
2019-02-04T06:30:14.103Z,92.64
2019-02-04T06:32:43.005Z,92.63
2019-02-04T06:35:12.791Z,92.53
2019-02-04T06:37:41.416Z,92.53
2019-02-04T06:40:17.294Z,92.58
2019-02-04T06:42:46.098Z,92.61
2019-02-04T06:45:18.320Z,92.68
2019-02-04T06:47:47.086Z,92.70
2019-02-04T06:50:18.348Z,92.82
2019-02-04T06:52:46.886Z,92.99
2019-02-04T06:55:30.330Z,93.10
2019-02-04T06:57:59.011Z,93.35
2019-02-04T07:00:27.580Z,93.38
2019-02-04T07:02:56.229Z,93.30
2019-02-04T07:05:24.773Z,93.39
2019-02-04T07:07:53.317Z,93.32
2019-02-04T07:10:24.337Z,93.32
2019-02-04T07:12:52.871Z,93.24
2019-02-04T07:15:21.498Z,93.17
2019-02-04T07:17:50.267Z,93.18
2019-02-04T07:20:23.704Z,93.30
2019-02-04T07:22:52.242Z,93.26
2019-02-04T07:25:21.358Z,93.35
2019-02-04T07:27:49.977Z,93.37
2019-02-04T07:30:20.759Z,93.31
2019-02-04T07:32:49.482Z,93.43
2019-02-04T07:35:19.939Z,93.43
2019-02-04T07:37:48.863Z,93.33
2019-02-04T07:40:23.526Z,93.42
2019-02-04T07:42:53.116Z,93.40
2019-02-04T07:45:22.026Z,93.45
2019-02-04T07:47:50.885Z,93.57
2019-02-04T07:50:19.507Z,93.69
2019-02-04T07:52:48.121Z,93.83
2019-02-04T07:55:16.614Z,93.86
2019-02-04T07:57:45.140Z,93.78
2019-02-04T08:00:24.611Z,93.80
2019-02-04T08:02:53.145Z,93.70
2019-02-04T08:05:21.601Z,93.80
2019-02-04T08:07:50.100Z,93.75
2019-02-04T08:10:18.619Z,93.65
2019-02-04T08:12:47.175Z,93.35
2019-02-04T08:15:21.576Z,93.21
2019-02-04T08:17:50.034Z,93.15
2019-02-04T08:20:18.491Z,93.12
2019-02-04T08:22:47.053Z,93.04
2019-02-04T08:25:16.836Z,92.81
2019-02-04T08:27:45.315Z,92.74
2019-02-04T08:30:23.182Z,92.76
2019-02-04T08:32:51.639Z,92.59
2019-02-04T08:35:20.264Z,92.69
2019-02-04T08:37:49.849Z,92.68
2019-02-04T08:40:19.471Z,92.59
2019-02-04T08:42:47.991Z,92.44
2019-02-04T08:45:16.679Z,92.11
2019-02-04T08:47:45.276Z,92.00
2019-02-04T08:50:17.243Z,91.68
2019-02-04T08:52:45.848Z,91.47
2019-02-04T08:55:14.534Z,91.58
2019-02-04T08:57:43.323Z,91.70
2019-02-04T09:00:15.015Z,91.72
2019-02-04T09:02:43.540Z,91.61
2019-02-04T09:05:14.331Z,91.57
2019-02-04T09:07:43.206Z,91.71
2019-02-04T09:10:20.817Z,91.87
2019-02-04T09:12:49.784Z,91.92
2019-02-04T09:15:18.410Z,91.83
2019-02-04T09:17:46.935Z,91.81
2019-02-04T09:20:19.045Z,91.99
2019-02-04T09:22:47.878Z,91.49
2019-02-04T09:25:18.365Z,91.12
2019-02-04T09:27:46.851Z,90.86
2019-02-04T09:30:20.742Z,90.68
2019-02-04T09:32:49.442Z,90.84
2019-02-04T09:35:19.676Z,90.48
2019-02-04T09:37:48.294Z,90.31
2019-02-04T09:40:20.531Z,90.37
2019-02-04T09:42:49.296Z,90.35
2019-02-04T09:45:18.119Z,90.27
2019-02-04T09:47:47.354Z,89.99
2019-02-04T09:50:22.080Z,89.96
2019-02-04T09:52:51.001Z,89.74
2019-02-04T09:55:22.264Z,89.53
2019-02-04T09:57:52.376Z,89.35
2019-02-04T10:00:26.461Z,89.25
2019-02-04T10:02:54.924Z,88.92
2019-02-04T10:05:23.500Z,88.68
2019-02-04T10:07:51.958Z,88.62
2019-02-04T10:10:26.234Z,88.21
2019-02-04T10:12:54.795Z,87.75
2019-02-04T10:15:25.792Z,87.47
2019-02-04T10:17:54.244Z,87.33
2019-02-04T10:20:33.108Z,87.32
2019-02-04T10:22:53.048Z,86.99
2019-02-04T10:25:33.935Z,86.47
2019-02-04T10:28:02.455Z,86.05
2019-02-04T10:30:31.023Z,85.80
2019-02-04T10:32:59.511Z,85.65
2019-02-04T10:35:27.957Z,85.75
2019-02-04T10:37:56.576Z,85.76
2019-02-04T10:40:29.693Z,85.70
2019-02-04T10:42:58.505Z,85.66
2019-02-04T10:45:27.401Z,85.39
2019-02-04T10:47:55.889Z,85.27
2019-02-04T10:50:45.121Z,85.13
2019-02-04T10:53:03.239Z,84.83
2019-02-04T10:55:31.756Z,84.43
2019-02-04T10:58:00.370Z,84.43
2019-02-04T11:00:33.928Z,84.81
2019-02-04T11:03:02.825Z,84.42
2019-02-04T11:05:33.980Z,84.42
2019-02-04T11:08:02.564Z,84.79
2019-02-04T11:10:33.497Z,84.85
2019-02-04T11:13:02.885Z,84.91
2019-02-04T11:15:31.409Z,84.77
2019-02-04T11:18:00.365Z,84.63
2019-02-04T11:20:30.492Z,84.72
2019-02-04T11:22:59.646Z,84.85
2019-02-04T11:25:28.129Z,84.85
2019-02-04T11:27:56.832Z,84.24
2019-02-04T11:30:30.552Z,84.27
2019-02-04T11:32:59.220Z,83.84
2019-02-04T11:35:27.804Z,84.10
2019-02-04T11:37:56.562Z,84.10
2019-02-04T11:40:28.494Z,83.67
2019-02-04T11:42:57.031Z,83.02
2019-02-04T11:45:26.079Z,83.02
2019-02-04T11:47:54.603Z,82.99
2019-02-04T11:50:23.063Z,83.17
2019-02-04T11:52:51.550Z,82.86
2019-02-04T11:55:20.081Z,82.57
2019-02-04T11:57:48.573Z,82.54
2019-02-04T12:00:25.584Z,81.62
2019-02-04T12:02:55.067Z,81.62
2019-02-04T12:05:24.491Z,81.61
2019-02-04T12:07:53.521Z,81.44
2019-02-04T12:10:30.612Z,81.32
2019-02-04T12:12:59.451Z,81.32
2019-02-04T12:15:27.899Z,80.77
2019-02-04T12:17:56.351Z,80.27
2019-02-04T12:20:24.832Z,80.08
2019-02-04T12:22:53.280Z,79.97
2019-02-04T12:25:23.879Z,80.10
2019-02-04T12:27:53.101Z,79.81
2019-02-04T12:30:31.022Z,79.59
2019-02-04T12:33:00.402Z,79.36
2019-02-04T12:35:29.000Z,78.85
2019-02-04T12:37:57.658Z,78.72
2019-02-04T12:40:26.599Z,78.60
2019-02-04T12:42:55.049Z,77.52
2019-02-04T12:45:28.934Z,77.09
2019-02-04T12:48:00.708Z,76.60
2019-02-04T12:50:28.073Z,76.35
2019-02-04T12:52:56.539Z,76.22
2019-02-04T12:55:27.296Z,76.22
2019-02-04T12:57:55.758Z,75.89
2019-02-04T13:00:29.937Z,75.50
2019-02-04T13:02:58.569Z,75.53
2019-02-04T13:05:30.327Z,74.99
2019-02-04T13:07:58.854Z,74.94
2019-02-04T13:10:27.318Z,74.48
2019-02-04T13:12:56.352Z,74.16
2019-02-04T13:15:25.541Z,73.98
2019-02-04T13:17:54.107Z,73.57
2019-02-04T13:20:23.399Z,73.76
2019-02-04T13:22:51.920Z,73.72
2019-02-04T13:25:23.128Z,73.50
2019-02-04T13:27:51.651Z,73.26
2019-02-04T13:30:23.006Z,73.48
2019-02-04T13:32:51.505Z,73.24
2019-02-04T13:35:19.964Z,73.37
2019-02-04T13:37:48.493Z,73.21
2019-02-04T13:40:30.518Z,73.17
2019-02-04T13:42:59.037Z,73.06
2019-02-04T13:45:28.020Z,73.26
2019-02-04T13:47:56.578Z,73.23
2019-02-04T13:50:25.232Z,73.25
2019-02-04T13:52:54.226Z,73.19
2019-02-04T13:55:31.670Z,73.21
2019-02-04T13:58:00.505Z,72.85
2019-02-04T14:00:29.027Z,72.79
2019-02-04T14:02:59.839Z,72.74
2019-02-04T14:05:31.406Z,72.79
2019-02-04T14:08:00.614Z,72.87
2019-02-04T14:10:34.888Z,72.38
2019-02-04T14:13:03.512Z,71.84
2019-02-04T14:15:35.422Z,71.77
2019-02-04T14:18:02.594Z,71.85
2019-02-04T14:20:31.120Z,71.48
2019-02-04T14:22:59.602Z,71.24
2019-02-04T14:25:28.163Z,71.02
2019-02-04T14:27:56.613Z,70.79
2019-02-04T14:30:37.234Z,70.60
2019-02-04T14:33:06.174Z,70.53
2019-02-04T14:35:34.861Z,70.10
2019-02-04T14:38:03.858Z,70.07
2019-02-04T14:40:32.403Z,70.14
2019-02-04T14:43:10.275Z,69.94
2019-02-04T14:46:04.556Z,69.90
2019-02-04T14:49:00.330Z,69.78
2019-02-04T14:51:32.147Z,69.87
2019-02-04T14:54:03.818Z,69.83
2019-02-04T14:56:59.800Z,69.87
2019-02-04T14:59:29.806Z,69.92
2019-02-04T15:02:13.303Z,70.00
2019-02-04T15:04:50.481Z,70.09
2019-02-04T15:07:39.663Z,69.90
2019-02-04T15:10:35.146Z,69.93
2019-02-04T15:13:15.718Z,69.78
2019-02-04T15:15:56.496Z,69.78
2019-02-04T15:18:57.310Z,69.50
2019-02-04T15:21:31.685Z,69.50
2019-02-04T15:24:08.907Z,69.83
2019-02-04T15:26:36.718Z,70.21
2019-02-04T15:29:14.176Z,70.21
2019-02-04T15:32:00.816Z,70.14
2019-02-04T15:35:05.633Z,70.25
2019-02-04T15:37:53.772Z,70.40
2019-02-04T15:40:25.396Z,70.11
2019-02-04T15:43:32.242Z,71.19
2019-02-04T15:46:12.608Z,71.19
2019-02-04T15:48:47.095Z,71.20
2019-02-04T15:51:18.722Z,71.61
2019-02-04T15:53:48.290Z,71.61
2019-02-04T15:56:16.871Z,72.08
2019-02-04T15:58:45.328Z,72.77
2019-02-04T16:01:14.749Z,72.77
2019-02-04T16:03:43.230Z,72.67
2019-02-04T16:06:11.682Z,72.74
2019-02-04T16:08:40.130Z,72.74
2019-02-04T16:11:08.787Z,73.06
2019-02-04T16:13:37.235Z,73.15
2019-02-04T16:16:05.682Z,73.33
2019-02-04T16:18:34.171Z,73.63
2019-02-04T16:21:02.624Z,73.87
2019-02-04T16:23:31.073Z,73.87
2019-02-04T16:25:59.857Z,75.01
2019-02-04T16:28:28.300Z,75.01
2019-02-04T16:30:56.784Z,74.65
2019-02-04T16:33:25.267Z,74.89
2019-02-04T16:35:53.722Z,74.62
2019-02-04T16:38:22.188Z,74.62
2019-02-04T16:40:50.719Z,74.78
2019-02-04T16:43:19.306Z,74.78
2019-02-04T16:45:47.723Z,75.26
2019-02-04T16:48:16.213Z,75.20
2019-02-04T16:50:44.674Z,74.97
2019-02-04T16:53:13.106Z,74.69
2019-02-04T16:55:42.759Z,74.69
2019-02-04T16:58:11.489Z,74.92
2019-02-04T17:00:39.941Z,74.80
2019-02-04T17:03:08.459Z,74.45
2019-02-04T17:05:36.982Z,75.28
2019-02-04T17:08:05.602Z,74.46
2019-02-04T17:10:34.116Z,74.46
2019-02-04T17:13:02.936Z,75.23
2019-02-04T17:15:31.468Z,75.25
2019-02-04T17:17:59.957Z,75.25
2019-02-04T17:20:30.982Z,74.54
2019-02-04T17:22:59.439Z,74.54
2019-02-04T17:25:27.908Z,74.96
2019-02-04T17:27:56.425Z,74.66
2019-02-04T17:30:25.945Z,74.66
2019-02-04T17:32:54.430Z,74.89
2019-02-04T17:35:22.951Z,74.79
2019-02-04T17:37:51.395Z,74.92
2019-02-04T17:40:24.678Z,74.97
2019-02-04T17:42:54.669Z,75.44
2019-02-04T17:45:23.198Z,74.53
2019-02-04T17:47:53.899Z,74.53
2019-02-04T17:50:22.984Z,75.07
2019-02-04T17:52:51.769Z,75.05
2019-02-04T17:55:22.786Z,75.12
2019-02-04T17:57:52.794Z,75.23
2019-02-04T18:00:40.935Z,74.96
2019-02-04T18:03:10.078Z,74.96
2019-02-04T18:05:38.585Z,75.33
2019-02-04T18:08:07.400Z,75.31
2019-02-04T18:10:35.926Z,75.38
2019-02-04T18:13:04.473Z,75.38
2019-02-04T18:15:32.974Z,75.63
2019-02-04T18:18:01.437Z,75.43
2019-02-04T18:20:29.902Z,75.17
2019-02-04T18:22:58.529Z,75.87
2019-02-04T18:25:27.396Z,75.87
2019-02-04T18:27:55.864Z,75.59
2019-02-04T18:30:25.788Z,75.75
2019-02-04T18:32:54.252Z,75.67
2019-02-04T18:35:23.447Z,75.67
2019-02-04T18:37:52.107Z,75.65
2019-02-04T18:40:24.831Z,75.59
2019-02-04T18:42:53.662Z,75.91
2019-02-04T18:45:24.967Z,75.91
2019-02-04T18:47:53.551Z,75.08
2019-02-04T18:50:23.453Z,75.37
2019-02-04T18:52:52.240Z,75.37
2019-02-04T18:55:26.449Z,75.55
2019-02-04T18:57:54.993Z,75.47
2019-02-04T19:00:26.709Z,75.43
2019-02-04T19:02:55.319Z,75.27
2019-02-04T19:05:26.673Z,75.29
2019-02-04T19:07:54.229Z,75.29
2019-02-04T19:10:23.730Z,75.22
2019-02-04T19:12:52.195Z,75.05
2019-02-04T19:15:23.784Z,75.08
2019-02-04T19:17:54.075Z,74.99
2019-02-04T19:20:23.692Z,74.95
2019-02-04T19:22:52.185Z,74.75
2019-02-04T19:25:21.984Z,74.33
2019-02-04T19:27:51.466Z,74.26
2019-02-04T19:30:31.790Z,74.67
2019-02-04T19:33:00.247Z,74.67
2019-02-04T19:35:28.707Z,74.46
2019-02-04T19:37:57.273Z,74.45
2019-02-04T19:40:25.728Z,74.44
2019-02-04T19:42:54.362Z,74.37
2019-02-04T19:45:24.675Z,74.46
2019-02-04T19:47:53.551Z,74.48
2019-02-04T19:50:24.757Z,74.06
2019-02-04T19:52:53.345Z,74.06
2019-02-04T19:55:22.145Z,74.45
2019-02-04T19:57:50.608Z,74.45
2019-02-04T20:00:21.247Z,74.55
2019-02-04T20:02:51.171Z,74.45
2019-02-04T20:05:25.849Z,74.39
2019-02-04T20:07:54.546Z,74.28
2019-02-04T20:10:25.414Z,74.02
2019-02-04T20:12:53.921Z,74.17
2019-02-04T20:15:25.276Z,74.17
2019-02-04T20:17:53.801Z,73.97
2019-02-04T20:20:22.557Z,73.87
2019-02-04T20:22:51.117Z,73.62
2019-02-04T20:25:24.800Z,74.00
2019-02-04T20:27:53.399Z,73.71
2019-02-04T20:30:31.857Z,73.71
2019-02-04T20:33:00.362Z,73.57
2019-02-04T20:35:28.862Z,73.57
2019-02-04T20:37:57.340Z,73.67
2019-02-04T20:40:27.330Z,73.67
2019-02-04T20:42:55.791Z,73.36
2019-02-04T20:45:25.574Z,73.40
2019-02-04T20:47:54.074Z,73.82
2019-02-04T20:50:37.334Z,73.82
2019-02-04T20:53:05.897Z,73.50
2019-02-04T20:55:34.360Z,73.54
2019-02-04T20:58:02.813Z,73.54
2019-02-04T21:00:32.012Z,73.33
2019-02-04T21:03:02.049Z,73.02
2019-02-04T21:05:30.958Z,73.02
2019-02-04T21:07:59.440Z,73.37
2019-02-04T21:10:31.269Z,73.34
2019-02-04T21:12:59.805Z,72.79
2019-02-04T21:15:28.390Z,72.79
2019-02-04T21:17:56.911Z,73.38
2019-02-04T21:20:27.213Z,73.28
2019-02-04T21:22:55.771Z,73.36
2019-02-04T21:25:24.467Z,73.26
2019-02-04T21:27:53.266Z,73.26
2019-02-04T21:30:48.690Z,73.17
2019-02-04T21:33:17.162Z,73.40
2019-02-04T21:35:45.612Z,73.40
2019-02-04T21:38:14.376Z,73.20
2019-02-04T21:40:42.842Z,73.19
2019-02-04T21:43:11.294Z,73.26
2019-02-04T21:45:39.853Z,73.23
2019-02-04T21:48:08.323Z,73.07
2019-02-04T21:50:36.836Z,73.20
2019-02-04T21:53:05.792Z,73.19
2019-02-04T21:55:34.265Z,73.15
2019-02-04T21:58:02.794Z,73.14
2019-02-04T22:00:34.292Z,72.99
2019-02-04T22:03:02.817Z,72.89
2019-02-04T22:05:33.425Z,72.75
2019-02-04T22:08:02.681Z,72.18
2019-02-04T22:10:31.602Z,72.18
2019-02-04T22:13:00.546Z,72.59
2019-02-04T22:15:29.102Z,72.29
2019-02-04T22:17:57.621Z,72.42
2019-02-04T22:20:26.101Z,71.80
2019-02-04T22:22:54.657Z,71.80
2019-02-04T22:25:24.876Z,71.89
2019-02-04T22:27:53.457Z,71.88
2019-02-04T22:30:23.933Z,71.50
2019-02-04T22:32:52.470Z,71.24
2019-02-04T22:35:20.928Z,71.24
2019-02-04T22:37:49.429Z,71.54
2019-02-04T22:40:23.073Z,71.62
2019-02-04T22:42:51.677Z,71.88
2019-02-04T22:45:20.347Z,71.26
2019-02-04T22:47:48.810Z,71.94
2019-02-04T22:50:20.439Z,71.72
2019-02-04T22:52:48.923Z,71.48
2019-02-04T22:55:18.015Z,71.00
2019-02-04T22:57:46.466Z,71.00
2019-02-04T23:00:43.936Z,71.33
2019-02-04T23:03:13.626Z,71.41
2019-02-04T23:05:42.077Z,71.41
2019-02-04T23:08:10.654Z,70.96
2019-02-04T23:10:39.314Z,70.96
2019-02-04T23:13:07.842Z,71.21
2019-02-04T23:15:36.393Z,71.35
2019-02-04T23:18:05.685Z,71.59
2019-02-04T23:20:34.136Z,71.61
2019-02-04T23:23:02.628Z,71.18
2019-02-04T23:25:42.693Z,71.18
2019-02-04T23:28:01.262Z,71.73
2019-02-04T23:30:29.766Z,71.77
2019-02-04T23:32:58.227Z,71.77
2019-02-04T23:35:26.680Z,71.77
2019-02-04T23:37:55.175Z,71.10
2019-02-04T23:40:23.633Z,70.49
2019-02-04T23:42:52.107Z,70.49
2019-02-04T23:45:20.589Z,70.39
2019-02-04T23:47:49.126Z,70.32
2019-02-04T23:50:17.948Z,70.03
2019-02-04T23:52:46.449Z,69.83
2019-02-04T23:55:15.413Z,69.79
2019-02-04T23:57:43.854Z,70.07
